Time;durP1;ratioP1;P1;durP2;ratioP2;P2;SDS_P1;SDS_P2;PMS_P1;PMS_P2;Temp;Humidity;BMP_temperature;BMP_pressure;BME280_temperature;BME280_humidity;BME280_pressure;Samples;Min_cycle;Max_cycle;Signal;HPM_P1;HPM_P2
2024/01/08 00:02:09;;;;;;;2.45;1.15;;;;;;;0.52;55.41;97677.59;4951030;28;20084;-77
2024/01/08 00:04:35;;;;;;;2.90;1.55;;;;;;;0.29;55.62;97674.94;5001643;28;20038;-76
2024/01/08 00:07:00;;;;;;;2.63;1.10;;;;;;;0.42;55.59;97682.13;5012191;28;20436;-78
2024/01/08 00:09:25;;;;;;;1.70;1.20;;;;;;;0.71;54.91;97676.38;4982448;28;20468;-78
2024/01/08 00:11:51;;;;;;;2.60;1.35;;;;;;;0.80;54.81;97659.97;4983378;28;20536;-77
2024/01/08 00:14:16;;;;;;;2.25;1.23;;;;;;;0.49;55.57;97675.34;5000991;28;20025;-77
2024/01/08 00:16:42;;;;;;;1.85;1.05;;;;;;;0.47;55.54;97667.03;5000299;28;20021;-77
2024/01/08 00:19:07;;;;;;;2.03;1.33;;;;;;;0.48;56.01;97672.00;4992318;28;20057;-81
2024/01/08 00:21:32;;;;;;;3.38;1.58;;;;;;;0.70;55.61;97680.69;4984770;28;20034;-81
2024/01/08 00:23:58;;;;;;;2.38;1.33;;;;;;;0.93;54.63;97678.16;5017864;28;20040;-79
2024/01/08 00:26:24;;;;;;;1.55;0.90;;;;;;;0.49;56.29;97676.13;4998439;28;20120;-81
2024/01/08 00:28:50;;;;;;;2.67;0.85;;;;;;;0.09;56.83;97672.78;5017783;28;20060;-77
2024/01/08 00:31:15;;;;;;;2.67;1.27;;;;;;;0.28;56.83;97670.81;5030346;28;20091;-77
2024/01/08 00:33:40;;;;;;;2.53;1.17;;;;;;;0.13;56.67;97681.72;4998343;28;20072;-78
2024/01/08 00:36:06;;;;;;;1.83;1.17;;;;;;;0.45;57.14;97668.97;5002021;28;20033;-77
2024/01/08 00:38:31;;;;;;;2.63;1.60;;;;;;;0.45;56.72;97669.78;4997026;28;20515;-77
2024/01/08 00:40:57;;;;;;;2.40;1.20;;;;;;;0.60;54.70;97674.16;5012527;28;20041;-78
2024/01/08 00:43:22;;;;;;;2.00;1.20;;;;;;;0.82;55.34;97673.41;5001616;28;20546;-77
2024/01/08 00:45:48;;;;;;;2.60;1.38;;;;;;;0.29;56.22;97678.31;4997957;28;20033;-77
2024/01/08 00:48:13;;;;;;;2.10;0.90;;;;;;;0.65;55.66;97661.66;5001234;28;20036;-77
2024/01/08 00:50:38;;;;;;;2.17;1.05;;;;;;;0.77;55.98;97675.66;5018807;28;20040;-78
2024/01/08 00:53:04;;;;;;;2.55;1.02;;;;;;;0.70;55.98;97677.31;5001549;28;20150;-78
2024/01/08 00:55:29;;;;;;;2.60;1.20;;;;;;;0.98;55.47;97675.09;4999018;28;20047;-78
2024/01/08 00:57:54;;;;;;;2.10;0.95;;;;;;;0.87;54.95;97678.03;4997648;28;20056;-77
2024/01/08 01:00:20;;;;;;;2.15;0.75;;;;;;;1.09;54.25;97674.66;5002398;28;20045;-78
2024/01/08 01:02:46;;;;;;;3.63;1.13;;;;;;;0.93;54.65;97673.03;4985813;28;20474;-77
2024/01/08 01:05:11;;;;;;;1.75;0.80;;;;;;;0.53;55.37;97672.28;5015279;28;20043;-77
2024/01/08 01:07:37;;;;;;;1.35;0.60;;;;;;;0.80;54.37;97670.22;5001870;28;20033;-79
2024/01/08 01:10:02;;;;;;;1.80;0.90;;;;;;;0.54;55.46;97675.66;4986764;28;20184;-78
2024/01/08 01:12:28;;;;;;;1.70;0.90;;;;;;;0.74;55.77;97673.47;5002591;28;20342;-77
2024/01/08 01:14:53;;;;;;;2.45;1.05;;;;;;;1.21;55.45;97671.72;5010274;28;20466;-78
2024/01/08 01:17:19;;;;;;;1.73;0.70;;;;;;;0.95;54.97;97679.75;4981979;28;20037;-77
2024/01/08 01:19:44;;;;;;;1.63;0.60;;;;;;;0.90;55.01;97670.78;4982477;28;20032;-78
2024/01/08 01:22:10;;;;;;;2.20;1.00;;;;;;;1.19;54.74;97676.22;4980239;28;20029;-77
2024/01/08 01:24:35;;;;;;;1.95;1.05;;;;;;;0.69;54.82;97679.09;4996903;28;20103;-77
2024/01/08 01:27:01;;;;;;;2.80;1.10;;;;;;;0.90;54.43;97681.03;5007360;28;20478;-78
2024/01/08 01:29:26;;;;;;;1.80;0.90;;;;;;;1.06;55.03;97681.91;5003018;28;20072;-80
2024/01/08 01:31:52;;;;;;;3.45;1.10;;;;;;;1.04;55.64;97684.63;4992147;28;20166;-81
2024/01/08 01:34:17;;;;;;;1.73;1.20;;;;;;;1.12;55.04;97689.72;4983863;28;20063;-81
2024/01/08 01:36:44;;;;;;;1.23;0.90;;;;;;;0.73;55.38;97680.34;5015058;28;20055;-81
2024/01/08 01:39:10;;;;;;;2.08;0.60;;;;;;;0.92;55.01;97686.78;4994104;28;20127;-76
2024/01/08 01:41:36;;;;;;;1.30;0.85;;;;;;;0.50;54.45;97695.69;5026184;28;20120;-77
2024/01/08 01:44:02;;;;;;;2.33;0.77;;;;;;;0.64;55.57;97681.38;5014723;28;20152;-78
2024/01/08 01:46:40;;;;;;;2.30;1.08;;;;;;;0.72;56.27;97678.75;5017404;28;20042;-77
2024/01/08 01:49:05;;;;;;;1.92;0.60;;;;;;;0.81;55.62;97687.19;5000790;28;20034;-77
2024/01/08 01:51:31;;;;;;;1.85;0.75;;;;;;;0.74;54.19;97681.94;4982944;28;20030;-76
2024/01/08 01:54:00;;;;;;;1.48;0.88;;;;;;;0.80;54.94;97683.03;5017144;28;20144;-77
2024/01/08 01:56:26;;;;;;;2.35;0.80;;;;;;;0.59;56.02;97677.72;4987319;28;20543;-78
2024/01/08 01:58:52;;;;;;;1.63;0.80;;;;;;;0.75;54.84;97682.75;4980950;28;20079;-78
2024/01/08 02:01:18;;;;;;;3.60;1.55;;;;;;;0.74;55.73;97683.72;4973377;28;20124;-77
2024/01/08 02:03:43;;;;;;;1.50;0.63;;;;;;;0.93;54.73;97687.63;5013523;28;20452;-77
2024/01/08 02:06:10;;;;;;;1.60;0.68;;;;;;;0.85;55.40;97687.66;5010087;28;20025;-76
2024/01/08 02:08:35;;;;;;;1.90;0.90;;;;;;;0.63;55.12;97679.75;5010678;28;20557;-77
2024/01/08 02:11:01;;;;;;;1.55;0.70;;;;;;;0.73;55.14;97675.22;5012571;28;20030;-77
2024/01/08 02:13:26;;;;;;;1.65;0.80;;;;;;;0.49;56.00;97683.81;4983470;28;20044;-77
2024/01/08 02:15:52;;;;;;;0.77;0.60;;;;;;;0.88;54.85;97683.00;4998320;28;20369;-77
2024/01/08 02:18:19;;;;;;;1.75;0.73;;;;;;;0.85;55.88;97674.84;5011060;28;20572;-78
2024/01/08 02:20:45;;;;;;;1.67;0.85;;;;;;;0.96;54.96;97673.66;4999054;28;20025;-78
2024/01/08 02:23:10;;;;;;;1.50;0.60;;;;;;;0.61;55.96;97670.66;4986714;28;20037;-76
2024/01/08 02:25:36;;;;;;;2.03;0.70;;;;;;;0.51;56.21;97666.53;4985208;28;20065;-78
2024/01/08 02:28:02;;;;;;;1.95;0.77;;;;;;;0.49;55.41;97673.56;5016807;28;20036;-77
2024/01/08 02:30:27;;;;;;;1.95;0.70;;;;;;;0.52;56.50;97672.47;4986346;28;20479;-77
2024/01/08 02:32:53;;;;;;;1.98;0.90;;;;;;;0.74;55.66;97664.00;4976661;28;20061;-77
2024/01/08 02:35:19;;;;;;;1.48;0.80;;;;;;;0.68;55.06;97667.22;4982777;28;20047;-78
2024/01/08 02:37:44;;;;;;;2.13;1.13;;;;;;;0.90;55.20;97657.97;5030935;28;20662;-77
2024/01/08 02:40:11;;;;;;;1.48;0.73;;;;;;;1.07;55.20;97666.34;4999963;28;20065;-80
2024/01/08 02:42:40;;;;;;;1.20;0.80;;;;;;;0.77;55.49;97660.28;5003596;28;20038;-81
2024/01/08 02:45:07;;;;;;;2.60;1.00;;;;;;;1.01;55.04;97666.25;5012930;28;20041;-81
2024/01/08 02:47:40;;;;;;;3.13;1.33;;;;;;;0.75;55.02;97667.34;4980147;28;20432;-82
2024/01/08 02:50:09;;;;;;;1.48;0.90;;;;;;;0.47;56.04;97660.16;5002232;28;20572;-77
2024/01/08 02:52:34;;;;;;;1.50;0.65;;;;;;;0.84;54.94;97660.41;5018274;28;20036;-77
2024/01/08 02:55:00;;;;;;;1.20;0.80;;;;;;;0.98;54.70;97662.25;4980057;28;20033;-78
2024/01/08 02:57:26;;;;;;;2.38;1.00;;;;;;;0.72;55.40;97650.56;5000002;28;20041;-77
2024/01/08 02:59:52;;;;;;;1.45;0.85;;;;;;;0.80;54.59;97659.97;5011323;28;20037;-78
2024/01/08 03:02:17;;;;;;;1.42;0.85;;;;;;;0.85;54.48;97667.94;4998934;28;20088;-78
2024/01/08 03:04:43;;;;;;;2.40;0.95;;;;;;;0.41;55.59;97653.13;5018234;28;20549;-78
2024/01/08 03:07:09;;;;;;;1.52;0.80;;;;;;;0.60;55.46;97657.06;5034292;28;20029;-78
2024/01/08 03:09:34;;;;;;;1.42;0.80;;;;;;;0.52;56.16;97662.22;5003052;28;20997;-77
2024/01/08 03:11:59;;;;;;;1.23;0.77;;;;;;;0.65;55.73;97672.72;5035344;28;20025;-77
2024/01/08 03:14:25;;;;;;;2.35;0.98;;;;;;;0.67;56.15;97667.41;5019738;28;20475;-77
2024/01/08 03:16:50;;;;;;;2.45;1.00;;;;;;;0.53;55.45;97672.28;5016570;28;20630;-77
2024/01/08 03:19:15;;;;;;;1.75;0.90;;;;;;;0.72;55.39;97667.69;5022145;28;20033;-78
2024/01/08 03:21:41;;;;;;;1.15;0.70;;;;;;;0.70;55.43;97674.75;5009227;28;20032;-76
2024/01/08 03:24:06;;;;;;;2.33;0.95;;;;;;;0.74;55.67;97665.78;5036898;28;20359;-77
2024/01/08 03:26:32;;;;;;;1.63;0.90;;;;;;;0.69;54.89;97668.84;5008331;28;20025;-77
2024/01/08 03:28:58;;;;;;;3.17;1.10;;;;;;;0.67;55.31;97660.53;5019098;28;20063;-77
2024/01/08 03:31:23;;;;;;;1.02;0.70;;;;;;;0.93;54.83;97660.19;5005572;28;20037;-79
2024/01/08 03:33:48;;;;;;;1.00;0.50;;;;;;;1.08;54.43;97662.00;4996016;28;20037;-77
2024/01/08 03:36:14;;;;;;;2.13;1.00;;;;;;;1.17;54.83;97671.25;4988188;28;20032;-79
2024/01/08 03:38:40;;;;;;;1.48;0.73;;;;;;;0.89;55.35;97664.09;5005716;28;20041;-77
2024/01/08 03:41:06;;;;;;;1.77;0.90;;;;;;;0.81;55.21;97666.69;5006968;28;20065;-78
2024/01/08 03:43:31;;;;;;;1.25;0.50;;;;;;;0.89;54.95;97674.34;5008043;28;20071;-77
2024/01/08 03:45:57;;;;;;;1.42;0.70;;;;;;;0.74;55.10;97658.88;5020565;28;20033;-77
2024/01/08 03:48:22;;;;;;;1.55;1.00;;;;;;;0.73;53.89;97671.84;4989057;28;20560;-77
2024/01/08 03:50:47;;;;;;;1.73;1.33;;;;;;;0.52;54.67;97665.56;4989005;28;20029;-77
2024/01/08 03:53:13;;;;;;;2.67;0.95;;;;;;;0.46;55.41;97675.69;4998433;28;20044;-76
2024/01/08 03:55:38;;;;;;;1.35;0.60;;;;;;;0.39;54.67;97672.97;4988830;28;20508;-77
2024/01/08 03:58:04;;;;;;;1.25;0.88;;;;;;;0.66;54.69;97664.03;5005761;28;20033;-77
2024/01/08 04:00:29;;;;;;;2.35;0.98;;;;;;;0.93;54.22;97669.66;5038655;28;20033;-77
2024/01/08 04:02:54;;;;;;;2.17;1.15;;;;;;;0.76;54.03;97674.09;4989188;28;20522;-77
2024/01/08 04:05:20;;;;;;;1.50;0.75;;;;;;;0.22;54.97;97671.47;5006185;28;20033;-78
2024/01/08 04:07:45;;;;;;;1.40;0.90;;;;;;;0.31;55.54;97675.56;5005555;28;20699;-78
2024/01/08 04:10:11;;;;;;;0.80;0.50;;;;;;;0.47;55.40;97670.41;5004204;28;20065;-77
2024/01/08 04:12:36;;;;;;;1.85;0.73;;;;;;;0.71;55.02;97666.91;4989045;28;20025;-77
2024/01/08 04:15:02;;;;;;;0.75;0.60;;;;;;;0.73;54.91;97671.84;5036311;28;20450;-78
2024/01/08 04:17:28;;;;;;;1.98;0.70;;;;;;;0.87;54.02;97667.78;5004602;28;20098;-77
2024/01/08 04:19:53;;;;;;;3.03;1.05;;;;;;;1.04;54.42;97668.47;5022167;28;20029;-79
2024/01/08 04:22:19;;;;;;;1.73;1.08;;;;;;;0.70;54.60;97678.13;5020569;28;20045;-77
2024/01/08 04:24:45;;;;;;;2.05;0.93;;;;;;;0.67;54.73;97681.03;4989515;28;20532;-77
2024/01/08 04:27:10;;;;;;;1.60;0.90;;;;;;;0.78;54.17;97677.28;5022933;28;20470;-77
2024/01/08 04:29:36;;;;;;;1.98;0.90;;;;;;;0.58;54.54;97676.09;5011775;28;20039;-78
2024/01/08 04:32:01;;;;;;;1.45;0.80;;;;;;;0.73;55.36;97682.13;5005154;28;20045;-78
2024/01/08 04:34:26;;;;;;;2.35;1.00;;;;;;;0.54;55.17;97681.56;5004716;28;20041;-78
2024/01/08 04:36:52;;;;;;;1.48;0.95;;;;;;;0.28;54.94;97694.66;5017063;28;20429;-77
2024/01/08 04:39:17;;;;;;;2.20;1.17;;;;;;;0.59;54.93;97687.97;5003250;28;20069;-77
2024/01/08 04:41:43;;;;;;;4.18;1.20;;;;;;;0.24;55.58;97690.81;5019741;28;20033;-77
2024/01/08 04:44:09;;;;;;;1.67;0.90;;;;;;;0.44;55.76;97691.22;5004550;28;20025;-77
2024/01/08 04:46:35;;;;;;;1.70;1.20;;;;;;;0.53;55.60;97703.03;5022039;28;20033;-77
2024/01/08 04:49:01;;;;;;;1.48;0.85;;;;;;;0.41;55.54;97708.69;5013761;28;20441;-78
2024/01/08 04:51:27;;;;;;;0.98;0.68;;;;;;;0.23;55.38;97704.59;5022099;28;20529;-79
2024/01/08 04:53:52;;;;;;;1.48;1.00;;;;;;;0.49;54.72;97704.31;5004498;28;20021;-77
2024/01/08 04:56:27;;;;;;;1.77;0.80;;;;;;;-0.02;55.23;97691.03;5001612;28;20417;-76
2024/01/08 04:58:53;;;;;;;2.13;1.08;;;;;;;0.36;55.37;97698.94;5017670;28;20108;-81
2024/01/08 05:01:18;;;;;;;2.28;1.20;;;;;;;0.44;54.34;97706.59;5022229;28;20120;-81
2024/01/08 05:03:44;;;;;;;2.20;0.98;;;;;;;0.56;55.06;97700.13;5001254;28;20030;-81
2024/01/08 05:06:13;;;;;;;1.48;0.98;;;;;;;0.97;54.03;97704.25;5007072;28;20065;-81
2024/01/08 05:08:39;;;;;;;1.77;0.98;;;;;;;0.94;53.97;97696.88;5002950;28;20485;-82
2024/01/08 05:11:06;;;;;;;1.50;0.88;;;;;;;0.63;54.29;97709.72;5019825;28;20029;-83
2024/01/08 05:13:34;;;;;;;2.10;0.98;;;;;;;0.67;53.88;97698.16;4991190;28;20752;-82
2024/01/08 05:16:00;;;;;;;2.10;1.08;;;;;;;0.78;54.68;97695.22;5020699;28;20042;-81
2024/01/08 05:18:26;;;;;;;1.80;1.02;;;;;;;0.71;55.01;97702.00;5020043;28;20041;-81
2024/01/08 05:20:51;;;;;;;1.58;1.00;;;;;;;0.42;54.56;97697.47;5001398;28;20072;-81
2024/01/08 05:23:16;;;;;;;2.80;1.08;;;;;;;0.94;53.81;97704.56;5014410;28;20029;-82
2024/01/08 05:25:42;;;;;;;1.60;0.80;;;;;;;0.97;54.71;97700.88;5021246;28;20039;-83
2024/01/08 05:28:09;;;;;;;2.15;1.25;;;;;;;-0.02;55.26;97693.59;5004472;28;20333;-82
2024/01/08 05:30:34;;;;;;;12.00;6.85;;;;;;;0.21;56.03;97701.41;5022396;28;20353;-81
2024/01/08 05:33:00;;;;;;;4.45;2.50;;;;;;;0.18;54.96;97707.63;5008042;28;20030;-81
2024/01/08 05:35:25;;;;;;;6.88;3.00;;;;;;;0.55;55.11;97708.78;5019025;28;20123;-81
2024/01/08 05:37:50;;;;;;;12.05;5.35;;;;;;;0.86;54.49;97708.00;5022735;28;20079;-82
2024/01/08 05:40:16;;;;;;;4.40;2.38;;;;;;;0.59;54.96;97703.34;5017331;28;20047;-82
2024/01/08 05:42:41;;;;;;;2.15;1.60;;;;;;;0.47;54.22;97708.81;4990124;28;20041;-82
2024/01/08 05:45:07;;;;;;;2.42;1.25;;;;;;;0.80;54.20;97700.19;5005694;28;20026;-82
2024/01/08 05:47:34;;;;;;;2.25;1.10;;;;;;;0.98;54.46;97712.72;4988622;28;20391;-81
2024/01/08 05:50:03;;;;;;;1.52;1.13;;;;;;;0.74;54.38;97712.72;4990796;28;20035;-80
2024/01/08 05:52:28;;;;;;;2.22;0.90;;;;;;;0.68;54.97;97715.94;5005959;28;20020;-82
2024/01/08 05:54:55;;;;;;;2.13;1.20;;;;;;;0.81;54.35;97712.03;4985194;28;20044;-80
2024/01/08 05:57:20;;;;;;;2.55;1.23;;;;;;;0.86;53.91;97710.56;5004422;28;20718;-80
2024/01/08 05:59:45;;;;;;;1.92;1.45;;;;;;;0.47;53.90;97713.16;5009378;28;20120;-82
2024/01/08 06:02:11;;;;;;;2.78;1.10;;;;;;;0.44;55.26;97713.47;5005399;28;20556;-82
2024/01/08 06:04:36;;;;;;;3.28;1.40;;;;;;;0.61;54.30;97719.34;5011497;28;20031;-81
2024/01/08 06:07:01;;;;;;;2.45;1.52;;;;;;;0.71;54.25;97709.69;5005293;28;20033;-82
2024/01/08 06:09:27;;;;;;;2.40;1.60;;;;;;;0.12;54.91;97705.75;5020838;28;20041;-77
2024/01/08 06:11:52;;;;;;;2.92;1.27;;;;;;;0.63;55.20;97719.97;5019844;28;20025;-77
2024/01/08 06:14:17;;;;;;;1.70;1.17;;;;;;;0.75;54.75;97726.31;5001963;28;20068;-78
2024/01/08 06:16:43;;;;;;;2.05;1.00;;;;;;;0.78;54.99;97715.72;5004195;28;20486;-77
2024/01/08 06:19:09;;;;;;;1.80;1.05;;;;;;;0.81;54.22;97725.66;5018937;28;20106;-81
2024/01/08 06:21:35;;;;;;;2.70;1.70;;;;;;;0.77;54.38;97716.69;5004204;28;20509;-83
2024/01/08 06:24:00;;;;;;;6.63;2.75;;;;;;;0.91;53.77;97718.53;5017806;28;20037;-80
2024/01/08 06:26:28;;;;;;;3.88;1.95;;;;;;;0.76;54.07;97716.88;4985953;28;20037;-81
2024/01/08 06:28:53;;;;;;;3.78;1.95;;;;;;;0.56;54.52;97720.63;5016515;28;20116;-81
2024/01/08 06:31:19;;;;;;;2.03;1.45;;;;;;;0.76;54.20;97722.78;5014463;28;20076;-82
2024/01/08 06:33:44;;;;;;;8.57;3.15;;;;;;;0.90;54.29;97719.50;5004761;28;20899;-81
2024/01/08 06:36:09;;;;;;;4.55;2.40;;;;;;;0.97;54.46;97721.41;5019781;28;20030;-85
2024/01/08 06:38:35;;;;;;;2.03;1.23;;;;;;;0.43;54.17;97722.94;5008082;28;20029;-82
2024/01/08 06:41:00;;;;;;;3.08;1.65;;;;;;;0.71;53.70;97719.94;5038101;28;20032;-80
2024/01/08 06:43:26;;;;;;;7.93;4.22;;;;;;;0.55;54.35;97710.56;5019903;28;20489;-82
2024/01/08 06:45:51;;;;;;;5.60;5.03;;;;;;;0.70;54.20;97718.31;5022731;28;20160;-82
2024/01/08 06:48:17;;;;;;;2.75;1.67;;;;;;;0.37;53.35;97716.69;4995210;28;20037;-82
2024/01/08 06:50:43;;;;;;;2.08;1.30;;;;;;;0.62;53.80;97726.03;5010505;28;20504;-81
2024/01/08 06:53:08;;;;;;;3.67;1.63;;;;;;;0.49;54.76;97729.94;5023533;28;20103;-84
2024/01/08 06:55:34;;;;;;;2.72;1.35;;;;;;;0.27;54.35;97715.28;5013186;28;20041;-83
2024/01/08 06:57:59;;;;;;;3.58;1.55;;;;;;;0.64;54.24;97727.50;5008377;28;20064;-82
2024/01/08 07:00:27;;;;;;;2.15;1.13;;;;;;;0.81;53.66;97725.66;5010070;28;20041;-83
2024/01/08 07:02:52;;;;;;;3.65;1.63;;;;;;;0.96;52.81;97730.88;5010289;28;20496;-80
2024/01/08 07:05:18;;;;;;;2.38;1.52;;;;;;;0.82;52.59;97724.66;5020462;28;20085;-82
2024/01/08 07:07:44;;;;;;;3.13;1.58;;;;;;;0.74;52.85;97733.22;5006947;28;20068;-84
2024/01/08 07:10:10;;;;;;;2.20;1.20;;;;;;;0.54;53.22;97729.44;5010470;28;20481;-81
2024/01/08 07:12:36;;;;;;;2.05;1.35;;;;;;;0.69;53.44;97729.56;5005833;28;20029;-82
2024/01/08 07:15:03;;;;;;;3.78;1.80;;;;;;;0.68;53.29;97731.31;5024858;28;20195;-82
2024/01/08 07:17:29;;;;;;;2.15;1.50;;;;;;;0.56;52.88;97730.06;5007943;28;20060;-83
2024/01/08 07:19:54;;;;;;;3.33;1.80;;;;;;;0.59;53.51;97734.09;5016489;28;20509;-77
2024/01/08 07:22:20;;;;;;;4.50;2.13;;;;;;;0.48;53.48;97735.22;5009039;28;20026;-77
2024/01/08 07:24:45;;;;;;;3.03;1.80;;;;;;;0.45;53.88;97738.94;5022145;28;20053;-77
2024/01/08 07:27:10;;;;;;;2.70;1.80;;;;;;;0.40;53.23;97730.94;5007068;28;20714;-77
2024/01/08 07:29:36;;;;;;;2.95;1.35;;;;;;;0.41;53.37;97742.78;5004917;28;20434;-80
2024/01/08 07:32:02;;;;;;;2.40;1.48;;;;;;;0.43;53.11;97745.16;5003690;28;20037;-81
2024/01/08 07:34:27;;;;;;;2.50;1.60;;;;;;;0.41;53.88;97745.34;5022830;28;20044;-84
2024/01/08 07:36:53;;;;;;;2.30;1.15;;;;;;;0.61;53.38;97748.31;5021261;28;20038;-82
2024/01/08 07:39:19;;;;;;;3.55;1.33;;;;;;;0.53;52.96;97756.84;4988857;28;20031;-84
2024/01/08 07:41:45;;;;;;;2.17;1.23;;;;;;;0.53;53.51;97751.72;5007437;28;20599;-81
2024/01/08 07:44:11;;;;;;;2.63;1.58;;;;;;;0.45;53.24;97754.31;5023358;28;20022;-81
2024/01/08 07:46:36;;;;;;;3.53;1.70;;;;;;;0.72;52.68;97754.81;5017751;28;20043;-82
2024/01/08 07:49:02;;;;;;;2.30;1.55;;;;;;;0.46;53.01;97748.19;5006042;28;20029;-82
2024/01/08 07:51:27;;;;;;;3.35;1.48;;;;;;;0.41;53.46;97752.22;5000924;28;20512;-82
2024/01/08 07:53:52;;;;;;;2.85;1.20;;;;;;;0.72;52.96;97754.81;5020259;28;20045;-84
2024/01/08 07:56:25;;;;;;;2.42;1.42;;;;;;;0.60;52.90;97751.03;5000278;28;20121;-81
2024/01/08 07:58:51;;;;;;;2.28;1.30;;;;;;;0.93;52.27;97749.16;5017595;28;20397;-83
2024/01/08 08:01:16;;;;;;;2.88;1.60;;;;;;;0.59;53.29;97750.25;5008142;28;20037;-82
2024/01/08 08:03:41;;;;;;;8.95;7.68;;;;;;;0.97;52.03;97757.28;5008330;28;20025;-88
2024/01/08 08:06:07;;;;;;;2.95;1.80;;;;;;;0.31;53.55;97760.09;5022757;28;20540;-82
2024/01/08 08:08:34;;;;;;;3.83;1.88;;;;;;;0.15;54.39;97766.06;5005003;28;20033;-82
2024/01/08 08:11:02;;;;;;;3.47;1.73;;;;;;;0.35;53.83;97769.06;4986067;28;20026;-81
2024/01/08 08:13:27;;;;;;;3.63;1.90;;;;;;;0.64;52.70;97771.06;5004003;28;20054;-82
2024/01/08 08:15:53;;;;;;;4.68;2.40;;;;;;;0.45;53.85;97759.44;4985628;28;20115;-81
2024/01/08 08:18:19;;;;;;;2.90;1.85;;;;;;;0.31;53.46;97765.22;5000280;28;20025;-83
2024/01/08 08:20:44;;;;;;;2.25;1.70;;;;;;;0.48;53.65;97764.22;5008708;28;20030;-82
2024/01/08 08:23:09;;;;;;;2.25;1.70;;;;;;;0.46;54.00;97766.13;5001491;28;20030;-84
2024/01/08 08:25:35;;;;;;;2.72;1.50;;;;;;;0.17;54.01;97779.50;5005727;28;20086;-83
2024/01/08 08:28:00;;;;;;;2.85;1.40;;;;;;;0.51;53.81;97779.25;4984899;28;20037;-83
2024/01/08 08:30:26;;;;;;;3.17;1.63;;;;;;;0.62;54.37;97782.41;4995072;28;20436;-81
2024/01/08 08:32:56;;;;;;;4.32;2.03;;;;;;;0.25;53.63;97788.94;5001030;28;20043;-79
2024/01/08 08:35:22;;;;;;;2.70;1.95;;;;;;;0.37;53.90;97787.63;5006588;28;20459;-86
2024/01/08 08:37:47;;;;;;;4.30;2.00;;;;;;;0.74;53.44;97793.94;5021254;28;20061;-81
2024/01/08 08:40:12;;;;;;;3.70;1.90;;;;;;;0.34;54.27;97795.63;5004362;28;20037;-82
2024/01/08 08:42:38;;;;;;;3.65;2.38;;;;;;;0.23;53.83;97793.44;4988805;28;20029;-84
2024/01/08 08:45:04;;;;;;;3.47;1.85;;;;;;;0.40;53.81;97791.63;4989241;28;20036;-80
2024/01/08 08:47:30;;;;;;;2.88;1.60;;;;;;;0.32;53.65;97795.00;5006778;28;20025;-82
2024/01/08 08:49:55;;;;;;;3.45;1.35;;;;;;;0.25;53.95;97805.09;5009251;28;20371;-82
2024/01/08 08:52:20;;;;;;;3.10;1.70;;;;;;;0.50;53.29;97799.94;5023982;28;20013;-81
2024/01/08 08:54:46;;;;;;;2.83;1.65;;;;;;;0.53;54.00;97810.66;5004813;28;20057;-79
2024/01/08 08:57:11;;;;;;;3.22;1.50;;;;;;;0.62;53.10;97806.31;5005673;28;20030;-83
2024/01/08 08:59:37;;;;;;;11.32;4.80;;;;;;;0.73;53.38;97803.34;4991919;28;20120;-81
2024/01/08 09:02:03;;;;;;;7.15;3.05;;;;;;;0.77;52.87;97814.09;4988579;28;20793;-81
2024/01/08 09:04:28;;;;;;;3.30;1.50;;;;;;;0.82;52.74;97804.13;4986443;28;20527;-82
2024/01/08 09:06:54;;;;;;;3.35;1.52;;;;;;;0.90;53.14;97811.00;5007252;28;20033;-82
2024/01/08 09:09:19;;;;;;;3.83;1.88;;;;;;;0.82;52.64;97806.69;4986470;28;20072;-81
2024/01/08 09:11:45;;;;;;;3.10;1.90;;;;;;;0.70;54.14;97808.84;5006183;28;20436;-82
2024/01/08 09:14:10;;;;;;;3.58;1.60;;;;;;;0.54;54.04;97809.66;5018251;28;20033;-82
2024/01/08 09:16:36;;;;;;;3.88;1.90;;;;;;;0.20;53.80;97802.22;5015360;28;20555;-82
2024/01/08 09:19:01;;;;;;;3.03;1.50;;;;;;;0.62;54.53;97800.34;5018592;28;20030;-82
2024/01/08 09:21:27;;;;;;;2.47;1.75;;;;;;;0.22;54.31;97809.75;4991909;28;20029;-82
2024/01/08 09:23:52;;;;;;;3.58;2.03;;;;;;;0.39;54.52;97808.75;5006420;28;20037;-82
2024/01/08 09:26:19;;;;;;;2.80;1.67;;;;;;;0.52;54.28;97809.03;5005634;28;20045;-80
2024/01/08 09:28:45;;;;;;;4.32;2.42;;;;;;;0.67;53.82;97810.91;5021254;28;20042;-81
2024/01/08 09:31:11;;;;;;;3.38;1.80;;;;;;;0.89;53.42;97820.47;5001633;28;20040;-81
2024/01/08 09:33:36;;;;;;;3.53;1.88;;;;;;;0.67;54.04;97813.47;4989250;28;20025;-82
2024/01/08 09:36:02;;;;;;;3.22;2.00;;;;;;;0.58;55.05;97810.13;5006652;28;20045;-82
2024/01/08 09:38:27;;;;;;;4.00;1.98;;;;;;;0.70;54.07;97808.03;5020554;28;20045;-81
2024/01/08 09:40:53;;;;;;;3.70;2.17;;;;;;;0.29;55.15;97821.75;5022276;28;20033;-83
2024/01/08 09:43:19;;;;;;;3.65;2.25;;;;;;;-0.12;56.29;97813.28;4990310;28;20498;-82
2024/01/08 09:46:09;;;;;;;4.13;3.15;;;;;;;0.27;55.78;97820.28;5003195;28;20075;-81
2024/01/08 09:48:35;;;;;;;3.90;2.33;;;;;;;0.36;55.26;97817.56;5020698;28;20040;-81
2024/01/08 09:51:02;;;;;;;4.97;2.65;;;;;;;0.31;55.99;97819.81;4998151;28;20386;-77
2024/01/08 09:53:28;;;;;;;3.30;1.75;;;;;;;0.18;55.29;97825.44;5021997;28;20080;-78
2024/01/08 09:55:54;;;;;;;4.18;2.33;;;;;;;0.32;56.19;97816.28;5019216;28;20536;-76
2024/01/08 09:58:19;;;;;;;3.55;2.17;;;;;;;0.56;55.29;97823.13;5019886;28;20064;-77
2024/01/08 10:00:44;;;;;;;4.05;1.95;;;;;;;0.82;54.50;97816.94;5021614;28;20076;-77
2024/01/08 10:03:13;;;;;;;4.28;2.25;;;;;;;0.50;54.06;97820.44;5019097;28;20033;-77
2024/01/08 10:05:39;;;;;;;5.55;2.42;;;;;;;0.65;54.50;97811.09;4988936;28;20074;-78
2024/01/08 10:08:05;;;;;;;3.42;2.15;;;;;;;0.62;54.46;97831.94;5006030;28;20075;-77
2024/01/08 10:10:31;;;;;;;4.35;2.20;;;;;;;0.46;54.80;97819.94;4988241;28;20025;-77
2024/01/08 10:12:57;;;;;;;5.63;2.65;;;;;;;0.53;54.41;97820.91;5019129;28;20103;-77
2024/01/08 10:15:22;;;;;;;7.07;2.55;;;;;;;0.62;53.87;97819.13;5007059;28;20030;-78
2024/01/08 10:17:49;;;;;;;4.95;2.70;;;;;;;0.46;52.82;97822.50;4991102;28;20163;-77
2024/01/08 10:20:15;;;;;;;6.30;2.67;;;;;;;0.33;53.24;97817.09;5006825;28;20033;-78
2024/01/08 10:22:41;;;;;;;4.10;2.22;;;;;;;-0.04;54.73;97820.97;5020894;28;20386;-77
2024/01/08 10:25:07;;;;;;;3.42;2.10;;;;;;;-0.14;53.54;97823.69;5008960;28;20087;-77
2024/01/08 10:27:33;;;;;;;3.92;2.13;;;;;;;-0.02;53.81;97813.91;5006302;28;20026;-77
2024/01/08 10:29:58;;;;;;;3.58;2.15;;;;;;;0.37;53.15;97818.38;5020680;28;20036;-77
2024/01/08 10:32:24;;;;;;;4.43;2.08;;;;;;;0.38;52.50;97814.84;5018311;28;20478;-77
2024/01/08 10:34:49;;;;;;;4.30;2.10;;;;;;;0.47;53.03;97828.44;4991444;28;20036;-77
2024/01/08 10:37:15;;;;;;;3.30;1.85;;;;;;;0.24;53.01;97816.31;5005491;28;20033;-76
2024/01/08 10:39:42;;;;;;;4.55;2.10;;;;;;;0.20;53.44;97824.47;4993954;28;20417;-77
2024/01/08 10:42:08;;;;;;;3.33;2.20;;;;;;;0.50;53.61;97816.09;5007866;28;20501;-77
2024/01/08 10:44:34;;;;;;;5.38;2.55;;;;;;;0.51;51.61;97815.13;4992615;28;20497;-78
2024/01/08 10:47:03;;;;;;;5.65;2.80;;;;;;;0.38;51.34;97812.28;5007060;28;20022;-78
2024/01/08 10:49:36;;;;;;;4.32;2.25;;;;;;;-0.21;51.87;97820.97;5040601;28;20030;-78
2024/01/08 10:52:11;;;;;;;5.90;2.88;;;;;;;-0.37;51.47;97823.50;5027914;28;20061;-79
2024/01/08 10:54:39;;;;;;;3.67;2.08;;;;;;;-0.44;52.67;97825.09;5025182;28;20037;-81
2024/01/08 10:57:10;;;;;;;3.90;2.13;;;;;;;-0.36;51.53;97831.97;5010377;28;20083;-83
2024/01/08 10:59:37;;;;;;;5.85;3.33;;;;;;;-0.60;52.66;97833.53;5008282;28;20535;-80
2024/01/08 11:02:03;;;;;;;5.50;2.33;;;;;;;-0.71;52.16;97828.72;5025609;28;20091;-81
2024/01/08 11:04:30;;;;;;;4.85;2.88;;;;;;;-0.47;51.26;97830.53;4992185;28;20116;-83
2024/01/08 11:06:56;;;;;;;4.38;2.50;;;;;;;-0.04;52.11;97824.31;5018476;28;20026;-81
2024/01/08 11:09:26;;;;;;;4.50;2.47;;;;;;;-0.25;50.90;97829.91;5009771;28;20080;-82
2024/01/08 11:11:51;;;;;;;4.75;2.20;;;;;;;-0.04;50.94;97826.09;5007781;28;20318;-82
2024/01/08 11:14:17;;;;;;;3.22;2.15;;;;;;;0.30;50.57;97817.41;5010018;28;20543;-82
2024/01/08 11:16:43;;;;;;;3.95;2.28;;;;;;;-0.01;50.73;97815.53;5027215;28;20499;-81
2024/01/08 11:19:17;;;;;;;3.45;2.25;;;;;;;-0.12;50.45;97816.66;5019059;28;20030;-82
2024/01/08 11:21:43;;;;;;;4.47;2.05;;;;;;;-0.21;50.93;97809.91;5017747;28;20354;-82
2024/01/08 11:24:09;;;;;;;4.38;2.13;;;;;;;0.05;50.88;97811.50;5002046;28;20064;-82
2024/01/08 11:26:40;;;;;;;3.35;2.13;;;;;;;0.19;50.19;97805.75;5007767;28;20041;-82
2024/01/08 11:29:08;;;;;;;4.72;2.00;;;;;;;-0.26;50.86;97812.97;5006614;28;20034;-82
2024/01/08 11:31:40;;;;;;;4.28;2.50;;;;;;;0.20;50.59;97806.56;5007563;28;20385;-81
2024/01/08 11:34:42;;;;;;;4.00;1.80;;;;;;;0.25;49.88;97799.19;5025746;28;20029;-83
2024/01/08 11:37:30;;;;;;;5.20;2.25;;;;;;;0.22;50.13;97802.06;5025885;28;20053;-79